KNKX/NKX METAR and TAF weather

Enter ICAO airport designator
Station Type Date Time Source
KNKX METAR 2021/05/14 13:55 UTC NOAA

KNKX 141355Z 00000KT 10SM OVC011 16/13 A3000 RMK AO2 SLP154 T01560128 $


Station Type Date Time Source
KNKX Decoded METAR 2021/05/14 13:55 UTC NOAA

MCAS MIRAMAR, CA, United States (KNKX) 32-52N 117-09W 146M
May 14, 2021 - 09:55 AM EDT / 2021.05.14 1355 UTC
Wind: Calm:0
Visibility: 10 mile(s):0
Sky conditions: overcast
Temperature: 60.1 F (15.6 C)
Dew Point: 55.0 F (12.8 C)
Relative Humidity: 83%
Pressure (altimeter): 30 in. Hg (1015 hPa)
ob: KNKX 141355Z 00000KT 10SM OVC011 16/13 A3000 RMK AO2 SLP154 T01560128
cycle: 14

Station Type Date Time Source
KNKX TAF 2021/05/14 09:04 UTC NOAA

TAF KNKX 1409/1509 01005KT 9999 OVC010 QNH2997INS
BECMG 1404/1406 VRB05KT 9999 OVC018 QNH2996INS
BECMG 1419/1421 27008KT 9999 FEW020 QNH2990INS
FM150130 VRB05KT 9999 FEW020 QNH2991INS
BECMG 1503/1505 VRB05KT 9999 OVC020 QNH2992INS T14/1412Z T21/1421Z

Example: see airport list